createdAt,value
2018-08-31T00:00:09.887Z,17.38
2018-08-31T00:01:25.164Z,17.38
2018-08-31T00:02:39.849Z,17.36
2018-08-31T00:04:56.547Z,17.36
2018-08-31T00:06:11.974Z,17.32
2018-08-31T00:07:31.846Z,17.29
2018-08-31T00:10:47.707Z,17.28
2018-08-31T00:12:58.894Z,17.21
2018-08-31T00:14:03.119Z,17.15
2018-08-31T00:15:07.733Z,17.14
2018-08-31T00:16:12.072Z,17.12
2018-08-31T00:17:16.367Z,17.14
2018-08-31T00:18:20.527Z,17.14
2018-08-31T00:19:24.759Z,17.16
2018-08-31T00:20:29.271Z,17.18
2018-08-31T00:21:33.487Z,17.22
2018-08-31T00:22:37.838Z,17.22
2018-08-31T00:23:53.134Z,17.23
2018-08-31T00:26:08.909Z,17.23
2018-08-31T00:27:24.731Z,17.21
2018-08-31T00:30:46.680Z,17.21
2018-08-31T00:32:02.063Z,17.12
2018-08-31T00:33:17.523Z,17.10
2018-08-31T00:36:33.976Z,17.09
2018-08-31T00:39:53.052Z,17.03
2018-08-31T00:41:07.727Z,16.94
2018-08-31T00:44:39.320Z,16.93
2018-08-31T00:45:44.184Z,16.88
2018-08-31T00:46:48.347Z,16.88
2018-08-31T00:47:52.988Z,16.88
2018-08-31T00:48:57.355Z,16.91
2018-08-31T00:50:01.695Z,16.92
2018-08-31T00:51:06.014Z,16.93
2018-08-31T00:52:10.185Z,16.96
2018-08-31T00:53:14.372Z,16.97
2018-08-31T00:54:18.685Z,16.99
2018-08-31T00:55:22.862Z,16.99
2018-08-31T00:56:27.247Z,17.00
2018-08-31T00:57:31.687Z,17.00
2018-08-31T00:58:35.960Z,17.01
2018-08-31T00:59:40.199Z,17.01
2018-08-31T01:00:45.987Z,17.02
2018-08-31T01:01:50.233Z,17.03
2018-08-31T01:02:54.825Z,17.03
2018-08-31T01:03:59.251Z,17.02
2018-08-31T01:05:03.470Z,17.03
2018-08-31T01:06:07.656Z,17.03
2018-08-31T01:07:11.974Z,17.05
2018-08-31T01:08:16.676Z,17.04
2018-08-31T01:09:20.835Z,17.05
2018-08-31T01:10:25.790Z,17.04
2018-08-31T01:11:30.283Z,17.05
2018-08-31T01:12:34.465Z,17.06
2018-08-31T01:13:38.747Z,17.06
2018-08-31T01:14:42.973Z,17.07
2018-08-31T01:15:47.589Z,17.07
2018-08-31T01:16:51.892Z,17.07
2018-08-31T01:17:56.597Z,17.05
2018-08-31T01:19:00.858Z,17.06
2018-08-31T01:20:06.120Z,17.05
2018-08-31T01:21:11.482Z,17.07
2018-08-31T01:22:15.759Z,17.05
2018-08-31T01:23:20.029Z,17.05
2018-08-31T01:24:24.355Z,17.05
2018-08-31T01:25:28.573Z,17.04
2018-08-31T01:26:32.919Z,17.04
2018-08-31T01:27:37.613Z,17.05
2018-08-31T01:28:42.143Z,17.04
2018-08-31T01:29:46.559Z,17.04
2018-08-31T01:30:50.798Z,17.03
2018-08-31T01:31:55.051Z,17.03
2018-08-31T01:32:59.272Z,17.01
2018-08-31T01:34:03.794Z,17.00
2018-08-31T01:35:08.165Z,17.00
2018-08-31T01:36:12.842Z,16.98
2018-08-31T01:37:17.335Z,16.99
2018-08-31T01:38:22.327Z,16.98
2018-08-31T01:39:27.149Z,16.98
2018-08-31T01:40:32.007Z,16.99
2018-08-31T01:41:36.538Z,16.97
2018-08-31T01:42:40.781Z,16.96
2018-08-31T01:43:51.408Z,16.96
2018-08-31T01:44:55.908Z,16.96
2018-08-31T01:46:00.165Z,16.98
2018-08-31T01:47:04.384Z,16.99
2018-08-31T01:48:09.235Z,17.00
2018-08-31T01:49:13.736Z,17.00
2018-08-31T01:50:17.984Z,17.00
2018-08-31T01:51:23.005Z,16.99
2018-08-31T01:52:27.803Z,16.99
2018-08-31T01:53:32.040Z,16.99
2018-08-31T01:54:36.202Z,16.98
2018-08-31T01:55:41.046Z,16.97
2018-08-31T01:56:45.683Z,16.97
2018-08-31T01:57:50.802Z,16.96
2018-08-31T01:58:55.012Z,16.95
2018-08-31T01:59:59.238Z,16.94
2018-08-31T02:01:03.631Z,16.94
2018-08-31T02:02:08.265Z,16.93
2018-08-31T02:03:12.885Z,16.92
2018-08-31T02:04:17.218Z,16.92
2018-08-31T02:05:21.360Z,16.90
2018-08-31T02:06:25.684Z,16.88
2018-08-31T02:07:29.996Z,16.86
2018-08-31T02:08:34.441Z,16.87
2018-08-31T02:09:38.860Z,16.87
2018-08-31T02:10:43.425Z,16.85
2018-08-31T02:11:48.962Z,16.86
2018-08-31T02:12:53.249Z,16.85
2018-08-31T02:13:57.431Z,16.86
2018-08-31T02:15:01.639Z,16.85
2018-08-31T02:16:05.883Z,16.84
2018-08-31T02:17:10.190Z,16.83
2018-08-31T02:18:14.384Z,16.83
2018-08-31T02:19:18.601Z,16.82
2018-08-31T02:20:22.908Z,16.81
2018-08-31T02:21:27.089Z,16.81
2018-08-31T02:22:31.382Z,16.79
2018-08-31T02:23:35.771Z,16.79
2018-08-31T02:24:40.338Z,16.79
2018-08-31T02:25:44.552Z,16.79
2018-08-31T02:26:48.768Z,16.79
2018-08-31T02:27:53.000Z,16.80
2018-08-31T02:28:57.234Z,16.81
2018-08-31T02:30:01.473Z,16.81
2018-08-31T02:31:05.754Z,16.79
2018-08-31T02:32:10.248Z,16.78
2018-08-31T02:33:14.435Z,16.76
2018-08-31T02:34:19.208Z,16.75
2018-08-31T02:35:23.799Z,16.73
2018-08-31T02:36:28.053Z,16.72
2018-08-31T02:37:32.229Z,16.70
2018-08-31T02:38:36.512Z,16.69
2018-08-31T02:39:40.795Z,16.69
2018-08-31T02:40:44.971Z,16.68
2018-08-31T02:41:49.616Z,16.68
2018-08-31T02:42:53.852Z,16.65
2018-08-31T02:43:58.352Z,16.65
2018-08-31T02:45:02.640Z,16.64
2018-08-31T02:46:07.459Z,16.63
2018-08-31T02:47:12.440Z,16.62
2018-08-31T02:48:16.795Z,16.60
2018-08-31T02:49:21.669Z,16.59
2018-08-31T02:50:25.978Z,16.57
2018-08-31T02:51:30.432Z,16.57
2018-08-31T02:52:34.801Z,16.57
2018-08-31T02:53:39.321Z,16.56
2018-08-31T02:54:44.332Z,16.55
2018-08-31T02:55:48.539Z,16.53
2018-08-31T02:56:52.719Z,16.53
2018-08-31T02:57:56.936Z,16.52
2018-08-31T02:59:01.403Z,16.51
2018-08-31T03:00:06.242Z,16.51
2018-08-31T03:01:10.579Z,16.49
2018-08-31T03:02:14.929Z,16.49
2018-08-31T03:03:19.384Z,16.47
2018-08-31T03:04:24.161Z,16.47
2018-08-31T03:05:28.501Z,16.46
2018-08-31T03:06:32.843Z,16.45
2018-08-31T03:07:37.011Z,16.44
2018-08-31T03:08:41.247Z,16.45
2018-08-31T03:09:45.417Z,16.47
2018-08-31T03:10:49.742Z,16.47
2018-08-31T03:11:54.357Z,16.46
2018-08-31T03:12:58.543Z,16.48
2018-08-31T03:14:02.869Z,16.47
2018-08-31T03:15:07.271Z,16.48
2018-08-31T03:16:11.507Z,16.49
2018-08-31T03:17:15.739Z,16.49
2018-08-31T03:18:20.549Z,16.51
2018-08-31T03:19:24.784Z,16.50
2018-08-31T03:20:28.950Z,16.50
2018-08-31T03:21:33.291Z,16.51
2018-08-31T03:22:37.490Z,16.52
2018-08-31T03:23:41.824Z,16.52
2018-08-31T03:24:46.031Z,16.51
2018-08-31T03:25:50.377Z,16.51
2018-08-31T03:26:54.700Z,16.51
2018-08-31T03:27:58.904Z,16.50
2018-08-31T03:29:03.300Z,16.49
2018-08-31T03:30:07.667Z,16.49
2018-08-31T03:31:12.121Z,16.48
2018-08-31T03:32:16.352Z,16.47
2018-08-31T03:33:20.599Z,16.48
2018-08-31T03:34:24.981Z,16.46
2018-08-31T03:35:29.485Z,16.45
2018-08-31T03:36:34.043Z,16.44
2018-08-31T03:37:38.310Z,16.43
2018-08-31T03:38:42.996Z,16.42
2018-08-31T03:39:47.236Z,16.40
2018-08-31T03:40:51.415Z,16.38
2018-08-31T03:41:55.613Z,16.37
2018-08-31T03:43:00.090Z,16.37
2018-08-31T03:44:04.311Z,16.37
2018-08-31T03:45:08.968Z,16.36
2018-08-31T03:46:13.246Z,16.37
2018-08-31T03:47:17.400Z,16.38
2018-08-31T03:48:22.261Z,16.37
2018-08-31T03:49:27.054Z,16.38
2018-08-31T03:50:31.209Z,16.39
2018-08-31T03:51:35.432Z,16.38
2018-08-31T03:52:39.617Z,16.36
2018-08-31T03:53:44.178Z,16.37
2018-08-31T03:54:48.445Z,16.36
2018-08-31T03:55:53.022Z,16.37
2018-08-31T03:56:57.279Z,16.36
2018-08-31T03:58:01.513Z,16.35
2018-08-31T03:59:06.041Z,16.35
2018-08-31T04:00:11.071Z,16.34
2018-08-31T04:01:15.394Z,16.34
2018-08-31T04:02:19.735Z,16.33
2018-08-31T04:03:24.418Z,16.34
2018-08-31T04:04:28.643Z,16.34
2018-08-31T04:05:32.875Z,16.35
2018-08-31T04:06:37.053Z,16.36
2018-08-31T04:07:41.372Z,16.38
2018-08-31T04:08:45.580Z,16.39
2018-08-31T04:09:49.856Z,16.38
2018-08-31T04:10:54.047Z,16.40
2018-08-31T04:11:58.335Z,16.40
2018-08-31T04:13:02.639Z,16.41
2018-08-31T04:14:06.844Z,16.40
2018-08-31T04:15:11.452Z,16.40
2018-08-31T04:16:15.570Z,16.39
2018-08-31T04:17:19.800Z,16.39
2018-08-31T04:18:23.951Z,16.39
2018-08-31T04:19:28.219Z,16.38
2018-08-31T04:20:33.338Z,16.40
2018-08-31T04:21:37.533Z,16.39
2018-08-31T04:22:41.893Z,16.38
2018-08-31T04:23:46.057Z,16.39
2018-08-31T04:24:50.451Z,16.38
2018-08-31T04:25:54.650Z,16.39
2018-08-31T04:26:58.999Z,16.37
2018-08-31T04:28:03.184Z,16.36
2018-08-31T04:29:07.379Z,16.35
2018-08-31T04:30:11.594Z,16.35
2018-08-31T04:31:16.600Z,16.34
2018-08-31T04:32:21.329Z,16.34
2018-08-31T04:33:25.838Z,16.35
2018-08-31T04:34:30.228Z,16.32
2018-08-31T04:35:34.462Z,16.32
2018-08-31T04:36:38.903Z,16.32
2018-08-31T04:37:43.114Z,16.30
2018-08-31T04:38:47.859Z,16.29
2018-08-31T04:39:52.020Z,16.29
2018-08-31T04:40:56.227Z,16.29
2018-08-31T04:42:00.881Z,16.26
2018-08-31T04:43:05.569Z,16.25
2018-08-31T04:44:10.091Z,16.24
2018-08-31T04:45:14.278Z,16.21
2018-08-31T04:46:18.565Z,16.20
2018-08-31T04:47:23.248Z,16.19
2018-08-31T04:48:27.461Z,16.16
2018-08-31T04:49:31.639Z,16.15
2018-08-31T04:50:35.820Z,16.16
2018-08-31T04:51:40.135Z,16.14
2018-08-31T04:52:44.307Z,16.15
2018-08-31T04:53:48.601Z,16.13
2018-08-31T04:54:53.023Z,16.12
2018-08-31T04:55:57.195Z,16.11
2018-08-31T04:57:01.435Z,16.12
2018-08-31T04:58:05.679Z,16.11
2018-08-31T04:59:10.050Z,16.10
2018-08-31T05:00:14.320Z,16.09
2018-08-31T05:01:18.989Z,16.09
2018-08-31T05:02:23.491Z,16.09
2018-08-31T05:03:28.264Z,16.08
2018-08-31T05:04:32.748Z,16.09
2018-08-31T05:05:36.974Z,16.09
2018-08-31T05:06:41.210Z,16.10
2018-08-31T05:07:45.622Z,16.10
2018-08-31T05:08:49.931Z,16.10
2018-08-31T05:09:54.134Z,16.11
2018-08-31T05:10:58.974Z,16.11
2018-08-31T05:12:03.687Z,16.11
2018-08-31T05:13:08.094Z,16.11
2018-08-31T05:14:12.402Z,16.11
2018-08-31T05:15:17.162Z,16.10
2018-08-31T05:16:21.336Z,16.11
2018-08-31T05:17:25.577Z,16.10
2018-08-31T05:18:29.951Z,16.10
2018-08-31T05:19:34.178Z,16.09
2018-08-31T05:20:38.572Z,16.08
2018-08-31T05:21:42.777Z,16.07
2018-08-31T05:22:47.149Z,16.07
2018-08-31T05:23:51.369Z,16.05
2018-08-31T05:24:55.830Z,16.06
2018-08-31T05:26:00.516Z,16.05
2018-08-31T05:27:04.951Z,16.06
2018-08-31T05:28:09.358Z,16.04
2018-08-31T05:29:13.910Z,16.04
2018-08-31T05:30:18.107Z,16.04
2018-08-31T05:31:22.423Z,16.05
2018-08-31T05:32:26.641Z,16.05
2018-08-31T05:33:30.858Z,16.08
2018-08-31T05:34:35.459Z,16.08
2018-08-31T05:35:40.150Z,16.07
2018-08-31T05:36:44.970Z,16.08
2018-08-31T05:37:49.828Z,16.08
2018-08-31T05:38:54.138Z,16.11
2018-08-31T05:39:58.649Z,16.11
2018-08-31T05:41:02.901Z,16.13
2018-08-31T05:42:07.469Z,16.16
2018-08-31T05:43:11.981Z,16.20
2018-08-31T05:44:16.375Z,16.21
2018-08-31T05:45:21.242Z,16.23
2018-08-31T05:46:25.481Z,16.25
2018-08-31T05:47:30.049Z,16.28
2018-08-31T05:48:34.483Z,16.30
2018-08-31T05:49:39.056Z,16.32
2018-08-31T05:50:43.248Z,16.34
2018-08-31T05:51:48.022Z,16.35
2018-08-31T05:52:52.216Z,16.36
2018-08-31T05:53:56.530Z,16.38
2018-08-31T05:55:00.798Z,16.38
2018-08-31T05:56:04.998Z,16.38
2018-08-31T05:57:09.327Z,16.38
2018-08-31T05:58:13.582Z,16.38
2018-08-31T05:59:18.092Z,16.38
2018-08-31T06:00:22.374Z,16.38
2018-08-31T06:01:26.971Z,16.39
2018-08-31T06:02:31.264Z,16.40
2018-08-31T06:03:35.931Z,16.40
2018-08-31T06:04:40.527Z,16.43
2018-08-31T06:05:44.742Z,16.45
2018-08-31T06:06:49.055Z,16.45
2018-08-31T06:07:53.308Z,16.45
2018-08-31T06:08:57.455Z,16.46
2018-08-31T06:10:01.718Z,16.46
2018-08-31T06:11:06.531Z,16.49
2018-08-31T06:12:10.948Z,16.49
2018-08-31T06:13:15.869Z,16.52
2018-08-31T06:14:20.042Z,16.52
2018-08-31T06:15:24.192Z,16.54
2018-08-31T06:16:29.006Z,16.56
2018-08-31T06:17:33.351Z,16.58
2018-08-31T06:18:37.816Z,16.59
2018-08-31T06:19:42.741Z,16.62
2018-08-31T06:20:50.238Z,16.63
2018-08-31T06:21:54.631Z,16.67
2018-08-31T06:22:59.005Z,16.69
2018-08-31T06:24:03.331Z,16.70
2018-08-31T06:25:07.631Z,16.73
2018-08-31T06:26:11.945Z,16.74
2018-08-31T06:27:16.180Z,16.78
2018-08-31T06:28:20.372Z,16.80
2018-08-31T06:29:24.786Z,16.82
2018-08-31T06:30:28.962Z,16.85
2018-08-31T06:31:33.194Z,16.87
2018-08-31T06:32:37.542Z,16.91
2018-08-31T06:33:41.717Z,16.95
2018-08-31T06:34:45.926Z,16.97
2018-08-31T06:35:50.427Z,17.01
2018-08-31T06:36:54.629Z,17.06
2018-08-31T06:37:58.794Z,17.10
2018-08-31T06:39:03.042Z,17.14
2018-08-31T06:40:07.346Z,17.17
2018-08-31T06:41:11.592Z,17.21
2018-08-31T06:42:15.775Z,17.24
2018-08-31T06:43:19.964Z,17.27
2018-08-31T06:44:24.269Z,17.28
2018-08-31T06:45:28.503Z,17.30
2018-08-31T06:46:32.796Z,17.33
2018-08-31T06:47:36.944Z,17.34
2018-08-31T06:48:41.119Z,17.37
2018-08-31T06:49:45.331Z,17.38
2018-08-31T06:50:49.536Z,17.40
2018-08-31T06:51:54.013Z,17.41
2018-08-31T06:52:58.184Z,17.43
2018-08-31T06:54:02.347Z,17.44
2018-08-31T06:55:06.641Z,17.45
2018-08-31T06:56:11.243Z,17.46
2018-08-31T06:57:15.551Z,17.46
2018-08-31T06:58:19.727Z,17.47
2018-08-31T06:59:23.913Z,17.48
2018-08-31T07:00:28.119Z,17.49
2018-08-31T07:01:32.359Z,17.51
2018-08-31T07:02:36.576Z,17.51
2018-08-31T07:03:41.158Z,17.51
2018-08-31T07:04:45.338Z,17.52
2018-08-31T07:05:49.547Z,17.53
2018-08-31T07:06:53.967Z,17.53
2018-08-31T07:07:58.160Z,17.55
2018-08-31T07:09:02.372Z,17.57
2018-08-31T07:10:06.691Z,17.59
2018-08-31T07:11:10.866Z,17.60
2018-08-31T07:12:15.109Z,17.61
2018-08-31T07:13:19.242Z,17.63
2018-08-31T07:14:23.468Z,17.63
2018-08-31T07:15:27.724Z,17.64
2018-08-31T07:16:31.891Z,17.64
2018-08-31T07:17:36.368Z,17.65
2018-08-31T07:18:40.636Z,17.65
2018-08-31T07:19:44.847Z,17.68
2018-08-31T07:20:48.993Z,17.69
2018-08-31T07:21:53.170Z,17.71
2018-08-31T07:22:57.396Z,17.73
2018-08-31T07:24:01.568Z,17.74
2018-08-31T07:25:05.932Z,17.75
2018-08-31T07:26:10.590Z,17.76
2018-08-31T07:27:14.968Z,17.77
2018-08-31T07:28:19.200Z,17.78
2018-08-31T07:29:23.389Z,17.79
2018-08-31T07:30:27.566Z,17.79
2018-08-31T07:31:31.796Z,17.79
2018-08-31T07:32:36.016Z,17.81
2018-08-31T07:33:40.206Z,17.82
2018-08-31T07:34:44.366Z,17.82
2018-08-31T07:35:48.609Z,17.84
2018-08-31T07:36:52.699Z,17.87
2018-08-31T07:37:57.075Z,17.88
2018-08-31T07:39:01.496Z,17.90
2018-08-31T07:40:06.088Z,17.93
2018-08-31T07:41:10.263Z,17.95
2018-08-31T07:42:14.476Z,17.96
2018-08-31T07:43:18.631Z,17.98
2018-08-31T07:44:22.829Z,18.01
2018-08-31T07:45:27.001Z,18.02
2018-08-31T07:46:31.241Z,18.05
2018-08-31T07:47:35.395Z,18.07
2018-08-31T07:48:39.574Z,18.07
2018-08-31T07:49:43.780Z,18.09
2018-08-31T07:50:48.066Z,18.11
2018-08-31T07:51:52.264Z,18.12
2018-08-31T07:52:56.470Z,18.15
2018-08-31T07:54:00.964Z,18.16
2018-08-31T07:55:05.182Z,18.20
2018-08-31T07:56:09.365Z,18.21
2018-08-31T07:57:13.571Z,18.25
2018-08-31T07:58:17.793Z,18.28
2018-08-31T07:59:22.009Z,18.30
2018-08-31T08:00:26.214Z,18.32
2018-08-31T08:01:30.451Z,18.33
2018-08-31T08:02:34.639Z,18.36
2018-08-31T08:03:38.803Z,18.39
2018-08-31T08:04:43.447Z,18.42
2018-08-31T08:05:47.608Z,18.44
2018-08-31T08:06:51.860Z,18.45
2018-08-31T08:07:55.982Z,18.47
2018-08-31T08:09:00.304Z,18.47
2018-08-31T08:10:04.499Z,18.47
2018-08-31T08:11:08.727Z,18.47
2018-08-31T08:12:12.991Z,18.49
2018-08-31T08:13:17.125Z,18.50
2018-08-31T08:14:21.392Z,18.51
2018-08-31T08:15:25.780Z,18.53
2018-08-31T08:16:29.923Z,18.53
2018-08-31T08:17:34.279Z,18.56
2018-08-31T08:18:38.624Z,18.60
2018-08-31T08:19:42.783Z,18.63
2018-08-31T08:20:46.959Z,18.64
2018-08-31T08:21:51.179Z,18.64
2018-08-31T08:22:55.340Z,18.65
2018-08-31T08:23:59.470Z,18.67
2018-08-31T08:25:03.705Z,18.66
2018-08-31T08:26:07.956Z,18.69
2018-08-31T08:27:12.174Z,18.70
2018-08-31T08:28:16.354Z,18.71
2018-08-31T08:29:20.515Z,18.71
2018-08-31T08:30:24.687Z,18.72
2018-08-31T08:31:28.838Z,18.75
2018-08-31T08:32:33.019Z,18.74
2018-08-31T08:33:37.334Z,18.75
2018-08-31T08:34:41.480Z,18.74
2018-08-31T08:35:45.802Z,18.73
2018-08-31T08:36:49.947Z,18.74
2018-08-31T08:37:54.140Z,18.75
2018-08-31T08:38:58.293Z,18.75
2018-08-31T08:40:02.505Z,18.76
2018-08-31T08:41:06.728Z,18.76
2018-08-31T08:42:10.995Z,18.77
2018-08-31T08:43:15.140Z,18.79
2018-08-31T08:44:19.349Z,18.79
2018-08-31T08:45:23.587Z,18.80
2018-08-31T08:46:27.776Z,18.83
2018-08-31T08:47:32.045Z,18.84
2018-08-31T08:48:36.522Z,18.85
2018-08-31T08:49:40.486Z,18.89
2018-08-31T08:50:44.800Z,18.93
2018-08-31T08:51:48.948Z,18.96
2018-08-31T08:52:53.155Z,18.97
2018-08-31T08:53:57.338Z,19.00
2018-08-31T08:55:01.523Z,19.02
2018-08-31T08:56:06.259Z,19.02
2018-08-31T08:57:13.651Z,19.04
2018-08-31T08:58:17.928Z,19.07
2018-08-31T08:59:22.028Z,19.08
2018-08-31T09:00:26.192Z,19.10
2018-08-31T09:01:30.344Z,19.12
2018-08-31T09:02:34.492Z,19.13
2018-08-31T09:03:38.771Z,19.14
2018-08-31T09:04:43.303Z,19.14
2018-08-31T09:05:47.544Z,19.17
2018-08-31T09:06:51.938Z,19.19
2018-08-31T09:07:56.119Z,19.21
2018-08-31T09:09:00.362Z,19.27
2018-08-31T09:10:04.572Z,19.31
2018-08-31T09:11:08.876Z,19.36
2018-08-31T09:12:13.048Z,19.41
2018-08-31T09:13:17.183Z,19.46
2018-08-31T09:14:21.593Z,19.50
2018-08-31T09:15:25.799Z,19.54
2018-08-31T09:16:29.957Z,19.55
2018-08-31T09:17:34.149Z,19.57
2018-08-31T09:18:38.317Z,19.60
2018-08-31T09:19:42.495Z,19.61
2018-08-31T09:20:47.188Z,19.63
2018-08-31T09:21:51.372Z,19.61
2018-08-31T09:22:55.567Z,19.62
2018-08-31T09:24:00.196Z,19.65
2018-08-31T09:25:04.418Z,19.68
2018-08-31T09:26:11.131Z,19.68
2018-08-31T09:27:15.345Z,19.69
2018-08-31T09:28:19.563Z,19.71
2018-08-31T09:29:23.767Z,19.73
2018-08-31T09:30:33.384Z,19.75
2018-08-31T09:31:37.594Z,19.78
2018-08-31T09:32:41.884Z,19.78
2018-08-31T09:33:46.151Z,19.79
2018-08-31T09:34:51.727Z,19.85
2018-08-31T09:35:55.900Z,19.89
2018-08-31T09:37:00.137Z,19.95
2018-08-31T09:38:04.292Z,19.99
2018-08-31T09:39:09.127Z,20.05
2018-08-31T09:40:13.291Z,20.14
2018-08-31T09:41:17.511Z,20.18
2018-08-31T09:42:21.778Z,20.20
2018-08-31T09:43:26.099Z,20.21
2018-08-31T09:44:30.267Z,20.20
2018-08-31T09:45:34.451Z,20.22
2018-08-31T09:46:38.805Z,20.25
2018-08-31T09:47:43.114Z,20.26
2018-08-31T09:48:47.283Z,20.31
2018-08-31T09:49:51.438Z,20.34
2018-08-31T09:50:55.631Z,20.34
2018-08-31T09:51:59.894Z,20.35
2018-08-31T09:53:04.338Z,20.37
2018-08-31T09:54:09.250Z,20.37
2018-08-31T09:55:13.420Z,20.39
2018-08-31T09:56:17.640Z,20.42
2018-08-31T09:57:21.810Z,20.44
2018-08-31T09:58:26.287Z,20.47
2018-08-31T09:59:30.497Z,20.53
2018-08-31T10:00:39.925Z,20.58
2018-08-31T10:01:44.093Z,20.63
2018-08-31T10:02:53.660Z,20.65
2018-08-31T10:04:01.232Z,20.66
2018-08-31T10:05:06.691Z,20.64
2018-08-31T10:06:10.840Z,20.63
2018-08-31T10:07:15.143Z,20.64
2018-08-31T10:08:19.385Z,20.64
2018-08-31T10:09:23.562Z,20.65
2018-08-31T10:10:27.714Z,20.65
2018-08-31T10:11:32.061Z,20.67
2018-08-31T10:12:36.214Z,20.66
2018-08-31T10:13:40.659Z,20.66
2018-08-31T10:14:44.992Z,20.65
2018-08-31T10:15:49.240Z,20.64
2018-08-31T10:16:53.448Z,20.63
2018-08-31T10:17:57.576Z,20.63
2018-08-31T10:19:01.727Z,20.64
2018-08-31T10:20:06.062Z,20.65
2018-08-31T10:21:10.402Z,20.65
2018-08-31T10:22:14.882Z,20.65
2018-08-31T10:23:19.038Z,20.65
2018-08-31T10:24:23.184Z,20.65
2018-08-31T10:25:27.601Z,20.65
2018-08-31T10:26:31.907Z,20.67
2018-08-31T10:27:36.065Z,20.71
2018-08-31T10:28:40.241Z,20.76
2018-08-31T10:29:44.407Z,20.81
2018-08-31T10:30:48.827Z,20.86
2018-08-31T10:31:52.975Z,20.92
2018-08-31T10:32:57.147Z,20.98
2018-08-31T10:34:01.335Z,21.04
2018-08-31T10:35:06.027Z,21.08
2018-08-31T10:36:10.275Z,21.14
2018-08-31T10:37:14.695Z,21.18
2018-08-31T10:38:18.948Z,21.19
2018-08-31T10:39:23.223Z,21.21
2018-08-31T10:40:27.419Z,21.22
2018-08-31T10:41:31.631Z,21.21
2018-08-31T10:42:35.904Z,21.20
2018-08-31T10:43:40.243Z,21.20
2018-08-31T10:44:44.430Z,21.19
2018-08-31T10:45:48.575Z,21.19
2018-08-31T10:46:52.802Z,21.20
2018-08-31T10:47:57.008Z,21.21
2018-08-31T10:49:01.263Z,21.21
2018-08-31T10:50:06.982Z,21.21
2018-08-31T10:51:11.122Z,21.22
2018-08-31T10:52:15.319Z,21.25
2018-08-31T10:53:19.577Z,21.27
2018-08-31T10:54:23.801Z,21.27
2018-08-31T10:55:28.106Z,21.27
2018-08-31T10:56:32.275Z,21.26
2018-08-31T10:57:36.809Z,21.27
2018-08-31T10:58:41.028Z,21.28
2018-08-31T10:59:45.437Z,21.27
2018-08-31T11:00:49.644Z,21.26
2018-08-31T11:01:53.780Z,21.25
2018-08-31T11:02:58.464Z,21.25
2018-08-31T11:04:02.682Z,21.26
2018-08-31T11:05:07.174Z,21.26
2018-08-31T11:06:11.387Z,21.28
2018-08-31T11:07:15.577Z,21.30
2018-08-31T11:08:19.870Z,21.33
2018-08-31T11:09:24.105Z,21.36
2018-08-31T11:10:28.308Z,21.36
2018-08-31T11:11:32.720Z,21.35
2018-08-31T11:12:37.147Z,21.36
2018-08-31T11:13:41.380Z,21.36
2018-08-31T11:14:45.591Z,21.36
2018-08-31T11:15:49.786Z,21.35
2018-08-31T11:16:54.124Z,21.34
2018-08-31T11:17:58.366Z,21.33
2018-08-31T11:19:03.081Z,21.31
2018-08-31T11:20:07.385Z,21.27
2018-08-31T11:21:14.866Z,21.24
2018-08-31T11:22:19.277Z,21.23
2018-08-31T11:23:23.524Z,21.22
2018-08-31T11:24:27.747Z,21.22
2018-08-31T11:25:32.080Z,21.20
2018-08-31T11:26:36.506Z,21.20
2018-08-31T11:27:40.694Z,21.21
2018-08-31T11:28:44.872Z,21.20
2018-08-31T11:29:49.451Z,21.21
2018-08-31T11:30:53.839Z,21.19
2018-08-31T11:31:58.084Z,21.20
2018-08-31T11:33:02.353Z,21.21
2018-08-31T11:34:06.761Z,21.20
2018-08-31T11:35:10.969Z,21.25
2018-08-31T11:36:15.171Z,21.25
2018-08-31T11:37:19.354Z,21.26
2018-08-31T11:38:27.985Z,21.26
2018-08-31T11:39:32.185Z,21.28
2018-08-31T11:40:36.395Z,21.29
2018-08-31T11:41:40.804Z,21.32
2018-08-31T11:42:45.011Z,21.35
2018-08-31T11:43:49.321Z,21.38
2018-08-31T11:44:53.727Z,21.40
2018-08-31T11:45:57.963Z,21.41
2018-08-31T11:47:02.351Z,21.42
2018-08-31T11:48:06.548Z,21.43
2018-08-31T11:49:10.724Z,21.40
2018-08-31T11:50:14.960Z,21.38
2018-08-31T11:51:19.166Z,21.36
2018-08-31T11:52:23.636Z,21.32
2018-08-31T11:53:27.813Z,21.29
2018-08-31T11:54:32.189Z,21.28
2018-08-31T11:55:36.600Z,21.27
2018-08-31T11:56:40.790Z,21.25
2018-08-31T11:57:44.986Z,21.24
2018-08-31T11:58:49.159Z,21.24
2018-08-31T11:59:53.684Z,21.26
2018-08-31T12:00:57.889Z,21.27
2018-08-31T12:02:02.351Z,21.27
2018-08-31T12:03:06.454Z,21.25
2018-08-31T12:04:10.673Z,21.25
2018-08-31T12:05:15.110Z,21.26
2018-08-31T12:06:19.292Z,21.28
2018-08-31T12:07:23.474Z,21.29
2018-08-31T12:08:27.661Z,21.33
2018-08-31T12:09:31.847Z,21.32
2018-08-31T12:10:36.029Z,21.30
2018-08-31T12:11:40.392Z,21.27
2018-08-31T12:12:44.664Z,21.29
2018-08-31T12:13:49.115Z,21.29
2018-08-31T12:14:53.464Z,21.30
2018-08-31T12:15:57.664Z,21.32
2018-08-31T12:17:01.827Z,21.33
2018-08-31T12:18:06.547Z,21.34
2018-08-31T12:19:10.707Z,21.34
2018-08-31T12:20:14.909Z,21.36
2018-08-31T12:21:19.259Z,21.36
2018-08-31T12:22:23.407Z,21.38
2018-08-31T12:23:27.673Z,21.39
2018-08-31T12:24:31.836Z,21.41
2018-08-31T12:25:36.131Z,21.41
2018-08-31T12:26:40.290Z,21.43
2018-08-31T12:27:46.206Z,21.46
2018-08-31T12:28:50.444Z,21.52
2018-08-31T12:29:54.640Z,21.54
2018-08-31T12:30:58.795Z,21.56
2018-08-31T12:32:03.212Z,21.61
2018-08-31T12:33:07.452Z,21.64
2018-08-31T12:34:11.591Z,21.66
2018-08-31T12:35:15.784Z,21.67
2018-08-31T12:36:20.107Z,21.69
2018-08-31T12:37:24.305Z,21.67
2018-08-31T12:38:29.284Z,21.65
2018-08-31T12:39:33.509Z,21.67
2018-08-31T12:40:37.726Z,21.66
2018-08-31T12:41:41.912Z,21.67
2018-08-31T12:42:46.232Z,21.66
2018-08-31T12:43:51.468Z,21.69
2018-08-31T12:44:55.879Z,21.70
2018-08-31T12:46:00.489Z,21.73
2018-08-31T12:47:04.956Z,21.74
2018-08-31T12:48:09.204Z,21.75
2018-08-31T12:49:13.359Z,21.75
2018-08-31T12:50:17.579Z,21.74
2018-08-31T12:51:21.956Z,21.73
2018-08-31T12:52:26.115Z,21.74
2018-08-31T12:53:30.433Z,21.74
2018-08-31T12:54:34.804Z,21.76
2018-08-31T12:55:39.358Z,21.79
2018-08-31T12:56:43.569Z,21.82
2018-08-31T12:57:47.736Z,21.84
2018-08-31T12:58:51.939Z,21.84
2018-08-31T12:59:59.811Z,21.86
2018-08-31T13:01:04.153Z,21.86
2018-08-31T13:02:08.415Z,21.86
2018-08-31T13:03:12.615Z,21.87
2018-08-31T13:04:16.981Z,21.86
2018-08-31T13:05:21.444Z,21.85
2018-08-31T13:06:25.651Z,21.86
2018-08-31T13:07:29.843Z,21.88
2018-08-31T13:08:34.124Z,21.88
2018-08-31T13:09:38.337Z,21.88
2018-08-31T13:10:42.529Z,21.88
2018-08-31T13:11:46.711Z,21.84
2018-08-31T13:12:51.145Z,21.79
2018-08-31T13:13:55.292Z,21.78
2018-08-31T13:14:59.540Z,21.76
2018-08-31T13:16:03.703Z,21.76
2018-08-31T13:17:07.904Z,21.77
2018-08-31T13:18:12.082Z,21.80
2018-08-31T13:19:16.277Z,21.81
2018-08-31T13:20:20.479Z,21.88
2018-08-31T13:21:24.636Z,21.91
2018-08-31T13:22:28.846Z,21.96
2018-08-31T13:23:33.093Z,21.99
2018-08-31T13:24:37.276Z,22.03
2018-08-31T13:25:41.564Z,22.07
2018-08-31T13:26:45.751Z,22.11
2018-08-31T13:27:49.943Z,22.14
2018-08-31T13:28:54.142Z,22.13
2018-08-31T13:29:58.346Z,22.11
2018-08-31T13:31:03.110Z,22.09
2018-08-31T13:32:07.290Z,22.10
2018-08-31T13:33:11.476Z,22.10
2018-08-31T13:34:15.634Z,22.10
2018-08-31T13:35:19.795Z,22.13
2018-08-31T13:36:23.981Z,22.13
2018-08-31T13:37:28.165Z,22.17
2018-08-31T13:38:32.528Z,22.18
2018-08-31T13:39:36.905Z,22.19
2018-08-31T13:40:41.096Z,22.21
2018-08-31T13:41:45.247Z,22.21
2018-08-31T13:42:49.607Z,22.19
2018-08-31T13:43:54.095Z,22.20
2018-08-31T13:44:58.255Z,22.21
2018-08-31T13:46:02.583Z,22.22
2018-08-31T13:47:06.733Z,22.21
2018-08-31T13:48:10.908Z,22.23
2018-08-31T13:49:15.191Z,22.25
2018-08-31T13:50:19.379Z,22.25
2018-08-31T13:51:23.539Z,22.26
2018-08-31T13:52:27.759Z,22.27
2018-08-31T13:53:31.915Z,22.28
2018-08-31T13:54:36.170Z,22.26
2018-08-31T13:55:40.397Z,22.25
2018-08-31T13:56:44.556Z,22.25
2018-08-31T13:57:48.732Z,22.24
2018-08-31T13:58:52.888Z,22.22
2018-08-31T13:59:57.079Z,22.21
2018-08-31T14:01:01.226Z,22.20
2018-08-31T14:02:05.395Z,22.18
2018-08-31T14:03:09.558Z,22.17
2018-08-31T14:04:13.707Z,22.15
2018-08-31T14:05:17.968Z,22.17